createdAt,value
2022-08-21T00:01:34.606Z,6.78
2022-08-21T00:03:40.011Z,5.65
2022-08-21T00:05:47.736Z,5.90
2022-08-21T00:07:52.807Z,5.63
2022-08-21T00:12:02.589Z,5.18
2022-08-21T00:14:10.661Z,4.35
2022-08-21T00:16:15.520Z,4.75
2022-08-21T00:18:26.007Z,5.07
2022-08-21T00:20:31.606Z,5.20
2022-08-21T00:22:36.596Z,5.20
2022-08-21T00:24:41.523Z,5.47
2022-08-21T00:26:46.612Z,6.50
2022-08-21T00:30:57.279Z,6.03
2022-08-21T00:33:03.138Z,5.88
2022-08-21T00:35:13.833Z,5.65
2022-08-21T00:37:18.755Z,5.55
2022-08-21T00:39:25.146Z,6.07
2022-08-21T00:41:38.370Z,5.80
2022-08-21T00:43:44.092Z,5.78
2022-08-21T00:47:56.161Z,6.10
2022-08-21T00:50:01.159Z,6.20
2022-08-21T00:52:10.901Z,7.65
2022-08-21T00:54:18.640Z,6.32
2022-08-21T00:56:25.611Z,6.78
2022-08-21T00:58:33.199Z,6.03
2022-08-21T01:00:40.906Z,7.70
2022-08-21T01:02:46.199Z,7.40
2022-08-21T01:04:51.514Z,6.53
2022-08-21T01:06:56.935Z,6.63
2022-08-21T01:09:04.599Z,6.43
2022-08-21T01:11:10.097Z,5.80
2022-08-21T01:13:17.276Z,6.35
2022-08-21T01:15:26.884Z,6.25
2022-08-21T01:17:32.449Z,6.35
2022-08-21T01:19:37.278Z,6.45
2022-08-21T01:21:45.085Z,5.15
2022-08-21T01:23:53.329Z,5.18
2022-08-21T01:25:58.293Z,4.95
2022-08-21T01:28:08.790Z,6.22
2022-08-21T01:30:17.439Z,6.03
2022-08-21T01:32:23.990Z,5.55
2022-08-21T01:34:29.238Z,6.57
2022-08-21T01:38:41.405Z,5.90
2022-08-21T01:40:46.563Z,6.63
2022-08-21T01:44:56.226Z,6.25
2022-08-21T01:49:07.919Z,5.90
2022-08-21T01:51:13.027Z,5.65
2022-08-21T01:55:35.496Z,6.07
2022-08-21T01:57:40.414Z,5.45
2022-08-21T01:59:45.398Z,4.85
2022-08-21T02:01:50.246Z,6.40
2022-08-21T02:03:55.173Z,5.50
2022-08-21T02:06:00.538Z,5.32
2022-08-21T02:08:06.244Z,5.50
2022-08-21T02:10:12.915Z,6.53
2022-08-21T02:12:20.410Z,6.30
2022-08-21T02:14:32.347Z,6.60
2022-08-21T02:16:38.348Z,4.97
2022-08-21T02:18:43.264Z,5.78
2022-08-21T02:20:55.650Z,6.20
2022-08-21T02:23:02.043Z,6.35
2022-08-21T02:25:07.847Z,6.55
2022-08-21T02:27:12.677Z,7.30
2022-08-21T02:29:20.275Z,7.32
2022-08-21T02:31:25.662Z,6.60
2022-08-21T02:33:31.220Z,6.65
2022-08-21T02:35:36.113Z,6.15
2022-08-21T02:37:47.958Z,5.88
2022-08-21T02:39:52.855Z,5.68
2022-08-21T02:41:57.824Z,6.63
2022-08-21T02:44:03.977Z,6.85
2022-08-21T02:46:13.246Z,7.25
2022-08-21T02:48:20.223Z,7.25
2022-08-21T02:50:28.003Z,10.27
2022-08-21T02:52:33.502Z,9.27
2022-08-21T02:54:38.382Z,7.75
2022-08-21T02:56:43.428Z,7.50
2022-08-21T02:58:51.995Z,7.78
2022-08-21T03:00:57.556Z,8.65
2022-08-21T03:03:05.831Z,7.22
2022-08-21T03:05:12.664Z,7.00
2022-08-21T03:07:19.608Z,7.50
2022-08-21T03:09:25.173Z,6.72
2022-08-21T03:11:30.245Z,7.88
2022-08-21T03:13:35.318Z,7.20
2022-08-21T03:15:41.157Z,8.05
2022-08-21T03:17:46.026Z,8.48
2022-08-21T03:19:53.498Z,7.57
2022-08-21T03:21:59.528Z,8.45
2022-08-21T03:24:04.662Z,8.35
2022-08-21T03:28:18.859Z,10.45
2022-08-21T03:30:25.678Z,9.70
2022-08-21T03:32:32.787Z,10.73
2022-08-21T03:34:37.732Z,10.18
2022-08-21T03:36:45.319Z,10.75
2022-08-21T03:38:50.307Z,10.48
2022-08-21T03:40:55.162Z,10.25
2022-08-21T03:42:59.970Z,9.02
2022-08-21T03:45:04.896Z,8.93
2022-08-21T03:47:10.985Z,7.25
2022-08-21T03:49:16.144Z,8.52
2022-08-21T03:53:28.450Z,7.93
2022-08-21T03:55:33.364Z,8.13
2022-08-21T03:57:38.403Z,7.47
2022-08-21T03:59:44.374Z,5.70
2022-08-21T04:01:56.861Z,5.95
2022-08-21T04:04:01.977Z,6.00
2022-08-21T04:06:07.454Z,5.35
2022-08-21T04:08:12.602Z,5.90
2022-08-21T04:10:20.466Z,6.82
2022-08-21T04:12:25.367Z,5.70
2022-08-21T04:14:31.335Z,5.20
2022-08-21T04:16:36.227Z,5.07
2022-08-21T04:18:41.179Z,5.57
2022-08-21T04:20:50.507Z,6.20
2022-08-21T04:22:56.235Z,6.07
2022-08-21T04:25:01.148Z,5.63
2022-08-21T04:27:08.577Z,5.65
2022-08-21T04:29:13.431Z,7.00
2022-08-21T04:31:20.720Z,5.80
2022-08-21T04:33:26.058Z,6.05
2022-08-21T04:35:32.436Z,5.90
2022-08-21T04:37:42.008Z,7.03
2022-08-21T04:39:51.481Z,6.93
2022-08-21T04:41:58.265Z,8.60
2022-08-21T04:44:06.318Z,6.35
2022-08-21T04:46:13.490Z,6.50
2022-08-21T04:48:20.973Z,5.25
2022-08-21T04:50:31.911Z,8.15
2022-08-21T04:52:42.854Z,7.38
2022-08-21T04:54:51.998Z,6.10
2022-08-21T04:57:04.562Z,9.07
2022-08-21T04:59:18.570Z,7.65
2022-08-21T05:01:27.882Z,6.60
2022-08-21T05:03:34.527Z,8.18
2022-08-21T05:05:39.631Z,7.40
2022-08-21T05:07:46.607Z,7.55
2022-08-21T05:09:51.617Z,7.25
2022-08-21T05:11:57.040Z,6.15
2022-08-21T05:14:02.213Z,6.20
2022-08-21T05:18:14.735Z,6.20
2022-08-21T05:20:20.765Z,8.85
2022-08-21T05:22:27.069Z,7.07
2022-08-21T05:24:32.347Z,7.47
2022-08-21T05:26:38.355Z,8.80
2022-08-21T05:28:50.748Z,7.28
2022-08-21T05:33:04.608Z,6.50
2022-08-21T05:35:10.964Z,6.07
2022-08-21T05:37:16.200Z,6.32
2022-08-21T05:39:21.232Z,6.22
2022-08-21T05:41:26.510Z,5.45
2022-08-21T05:43:31.354Z,5.97
2022-08-21T05:45:42.673Z,5.82
2022-08-21T05:47:48.938Z,6.63
2022-08-21T05:49:56.424Z,7.07
2022-08-21T05:52:01.264Z,9.15
2022-08-21T05:54:06.334Z,6.95
2022-08-21T05:56:11.665Z,6.82
2022-08-21T05:58:17.302Z,7.13
2022-08-21T06:00:24.142Z,7.82
2022-08-21T06:02:29.067Z,6.60
2022-08-21T06:04:34.072Z,6.40
2022-08-21T06:06:41.803Z,4.82
2022-08-21T06:08:47.028Z,6.93
2022-08-21T06:12:58.033Z,5.15
2022-08-21T06:15:02.999Z,5.15
2022-08-21T06:17:08.672Z,6.65
2022-08-21T06:19:13.533Z,7.80
2022-08-21T06:21:18.698Z,8.40
2022-08-21T06:25:39.354Z,7.03
2022-08-21T06:27:44.325Z,6.97
2022-08-21T06:31:55.008Z,5.70
2022-08-21T06:34:01.012Z,5.90
2022-08-21T06:36:06.270Z,6.68
2022-08-21T06:38:11.825Z,7.22
2022-08-21T06:40:22.009Z,5.85
2022-08-21T06:42:28.882Z,5.15
2022-08-21T06:44:34.026Z,6.82
2022-08-21T06:48:43.614Z,6.32
2022-08-21T06:50:48.720Z,6.43
2022-08-21T06:52:53.587Z,7.13
2022-08-21T06:54:58.523Z,5.82
2022-08-21T06:57:06.345Z,7.95
2022-08-21T06:59:11.271Z,6.55
2022-08-21T07:01:16.565Z,7.82
2022-08-21T07:03:26.048Z,7.97
2022-08-21T07:05:31.951Z,7.32
2022-08-21T07:07:36.963Z,7.28
2022-08-21T07:09:41.801Z,8.32
2022-08-21T07:11:49.217Z,8.93
2022-08-21T07:13:57.631Z,5.70
2022-08-21T07:16:04.315Z,8.25
2022-08-21T07:18:09.708Z,6.47
2022-08-21T07:20:14.635Z,5.20
2022-08-21T07:22:22.314Z,6.65
2022-08-21T07:24:27.296Z,5.43
2022-08-21T07:26:32.240Z,7.43
2022-08-21T07:28:37.105Z,7.85
2022-08-21T07:30:44.581Z,7.50
2022-08-21T07:32:50.342Z,8.23
2022-08-21T07:34:55.238Z,5.85
2022-08-21T07:37:06.032Z,4.78
2022-08-21T07:39:14.960Z,7.70
2022-08-21T07:41:22.015Z,7.97
2022-08-21T07:43:29.955Z,7.72
2022-08-21T07:45:34.916Z,8.63
2022-08-21T07:47:43.145Z,7.57
2022-08-21T07:49:48.095Z,8.23
2022-08-21T07:51:53.077Z,8.23
2022-08-21T07:54:00.303Z,6.35
2022-08-21T07:56:05.696Z,6.88
2022-08-21T07:58:10.687Z,7.85
2022-08-21T08:00:19.155Z,6.15
2022-08-21T08:02:28.700Z,6.53
2022-08-21T08:04:36.117Z,6.53
2022-08-21T08:06:41.023Z,7.00
2022-08-21T08:08:46.699Z,7.30
2022-08-21T08:10:51.634Z,7.50
2022-08-21T08:12:58.243Z,7.07
2022-08-21T08:15:05.088Z,7.80
2022-08-21T08:17:10.117Z,5.93
2022-08-21T08:19:15.179Z,7.63
2022-08-21T08:21:26.389Z,7.38
2022-08-21T08:23:31.817Z,7.00
2022-08-21T08:25:37.066Z,7.93
2022-08-21T08:27:42.612Z,7.05
2022-08-21T08:29:49.244Z,6.63
2022-08-21T08:31:54.739Z,7.85
2022-08-21T08:33:59.583Z,7.28
2022-08-21T08:36:07.909Z,7.10
2022-08-21T08:38:19.748Z,7.35
2022-08-21T08:40:34.269Z,8.18
2022-08-21T08:42:40.580Z,7.22
2022-08-21T08:44:46.279Z,8.25
2022-08-21T08:46:54.076Z,7.07
2022-08-21T08:49:06.424Z,6.43
2022-08-21T08:51:21.564Z,6.70
2022-08-21T08:53:35.972Z,5.05
2022-08-21T08:55:46.400Z,7.05
2022-08-21T08:57:54.072Z,7.93
2022-08-21T09:00:02.920Z,9.60
2022-08-21T09:02:09.021Z,10.80
2022-08-21T09:04:15.962Z,8.13
2022-08-21T09:06:32.438Z,8.63
2022-08-21T09:08:52.752Z,8.35
2022-08-21T09:11:05.115Z,8.60
2022-08-21T09:13:18.839Z,8.55
2022-08-21T09:15:30.576Z,8.50
2022-08-21T09:17:48.943Z,8.32
2022-08-21T09:20:03.368Z,6.43
2022-08-21T09:22:21.222Z,6.43
2022-08-21T09:24:35.223Z,7.18
2022-08-21T09:26:54.792Z,7.18
2022-08-21T09:29:03.336Z,5.82
2022-08-21T09:31:11.594Z,7.47
2022-08-21T09:33:18.496Z,6.45
2022-08-21T09:35:25.856Z,6.90
2022-08-21T09:37:32.742Z,5.75
2022-08-21T09:39:46.934Z,4.82
2022-08-21T09:42:00.133Z,4.80
2022-08-21T09:44:05.409Z,5.82
2022-08-21T09:46:13.650Z,6.60
2022-08-21T09:48:22.553Z,7.63
2022-08-21T09:50:31.883Z,8.75
2022-08-21T09:54:44.582Z,6.03
2022-08-21T09:57:11.702Z,6.22
2022-08-21T09:59:23.208Z,6.78
2022-08-21T10:01:29.875Z,5.95
2022-08-21T10:03:34.955Z,6.05
2022-08-21T10:07:45.904Z,7.80
2022-08-21T10:10:02.493Z,6.45
2022-08-21T10:12:20.591Z,5.97
2022-08-21T10:14:45.174Z,6.68
2022-08-21T10:17:05.951Z,6.60
2022-08-21T10:19:23.794Z,7.80
2022-08-21T10:21:35.022Z,7.20
2022-08-21T10:23:49.463Z,5.57
2022-08-21T10:26:14.270Z,6.00
2022-08-21T10:28:28.402Z,8.13
2022-08-21T10:30:42.404Z,6.18
2022-08-21T10:33:01.950Z,6.25
2022-08-21T10:35:15.884Z,6.13
2022-08-21T10:37:47.878Z,6.03
2022-08-21T10:40:06.476Z,6.53
2022-08-21T10:42:37.227Z,5.65
2022-08-21T10:44:59.173Z,4.47
2022-08-21T10:47:08.539Z,7.82
2022-08-21T10:49:24.685Z,6.90
2022-08-21T10:51:38.238Z,5.30
2022-08-21T10:53:59.552Z,8.20
2022-08-21T10:56:16.170Z,7.15
2022-08-21T10:58:29.610Z,7.60
2022-08-21T11:00:42.768Z,8.85
2022-08-21T11:02:55.667Z,6.75
2022-08-21T11:05:06.468Z,7.93
2022-08-21T11:07:22.039Z,7.32
2022-08-21T11:09:30.194Z,6.10
2022-08-21T11:11:43.849Z,6.80
2022-08-21T11:13:59.557Z,7.32
2022-08-21T11:16:11.332Z,8.25
2022-08-21T11:18:26.222Z,7.20
2022-08-21T11:20:36.532Z,6.88
2022-08-21T11:22:54.294Z,6.72
2022-08-21T11:25:08.268Z,6.90
2022-08-21T11:27:21.307Z,7.28
2022-08-21T11:29:33.211Z,5.20
2022-08-21T11:31:51.732Z,5.50
2022-08-21T11:34:11.842Z,6.75
2022-08-21T11:36:26.798Z,6.07
2022-08-21T11:38:39.820Z,4.82
2022-08-21T11:41:04.414Z,5.15
2022-08-21T11:43:20.855Z,5.80
2022-08-21T11:45:34.767Z,6.03
2022-08-21T11:47:56.151Z,5.38
2022-08-21T11:50:34.902Z,5.28
2022-08-21T11:52:48.658Z,4.07
2022-08-21T11:55:00.552Z,4.45
2022-08-21T11:57:09.665Z,4.40
2022-08-21T11:59:22.516Z,4.28
2022-08-21T12:01:35.266Z,4.63
2022-08-21T12:03:44.013Z,4.57
2022-08-21T12:05:57.812Z,3.80
2022-08-21T12:08:10.452Z,3.60
2022-08-21T12:10:18.718Z,4.18
2022-08-21T12:12:29.807Z,4.50
2022-08-21T12:14:43.006Z,3.40
2022-08-21T12:16:52.649Z,3.53
2022-08-21T12:19:07.820Z,3.47
2022-08-21T12:21:26.437Z,4.32
2022-08-21T12:23:37.958Z,4.15
2022-08-21T12:25:45.624Z,2.95
2022-08-21T12:27:54.551Z,4.35
2022-08-21T12:30:03.012Z,3.50
2022-08-21T12:32:31.014Z,3.22
2022-08-21T12:34:39.756Z,3.63
2022-08-21T12:36:52.165Z,3.72
2022-08-21T12:39:01.387Z,3.17
2022-08-21T12:41:10.226Z,3.90
2022-08-21T12:43:25.633Z,4.45
2022-08-21T12:45:35.093Z,3.65
2022-08-21T12:47:52.171Z,5.18
2022-08-21T12:50:02.864Z,3.55
2022-08-21T12:52:20.854Z,2.85
2022-08-21T12:54:29.483Z,2.70
2022-08-21T12:56:40.173Z,3.50
2022-08-21T12:58:49.568Z,3.55
2022-08-21T13:00:56.871Z,4.20
2022-08-21T13:03:04.366Z,4.80
2022-08-21T13:05:12.405Z,3.40
2022-08-21T13:07:25.668Z,3.75
2022-08-21T13:09:33.542Z,3.70
2022-08-21T13:11:40.813Z,3.10
2022-08-21T13:13:51.684Z,3.10
2022-08-21T13:16:02.226Z,3.72
2022-08-21T13:18:10.711Z,2.97
2022-08-21T13:20:28.011Z,3.40
2022-08-21T13:22:34.896Z,3.63
2022-08-21T13:24:43.420Z,3.35
2022-08-21T13:26:48.843Z,2.90
2022-08-21T13:28:54.250Z,2.70
2022-08-21T13:30:59.905Z,2.90
2022-08-21T13:33:13.268Z,2.90
2022-08-21T13:35:21.193Z,2.78
2022-08-21T13:37:29.191Z,3.80
2022-08-21T13:39:34.690Z,3.50
2022-08-21T13:41:42.537Z,2.80
2022-08-21T13:43:53.431Z,3.63
2022-08-21T13:45:59.814Z,3.03
2022-08-21T13:48:06.836Z,2.88
2022-08-21T13:50:17.488Z,3.20
2022-08-21T13:52:24.545Z,3.17
2022-08-21T13:54:32.876Z,2.60
2022-08-21T13:56:47.320Z,2.85
2022-08-21T13:58:52.287Z,2.63
2022-08-21T14:03:08.748Z,3.38
2022-08-21T14:05:24.981Z,3.10
2022-08-21T14:07:35.245Z,3.03
2022-08-21T14:09:45.904Z,3.00
2022-08-21T14:11:50.887Z,2.70
2022-08-21T14:16:13.730Z,2.85
2022-08-21T14:18:20.813Z,2.50
2022-08-21T14:20:36.931Z,3.00
2022-08-21T14:22:44.554Z,2.92
2022-08-21T14:24:49.764Z,2.67
2022-08-21T14:27:05.542Z,2.20
2022-08-21T14:29:12.593Z,2.58
2022-08-21T14:31:20.030Z,2.38
2022-08-21T14:33:30.122Z,2.40
2022-08-21T14:35:37.661Z,2.47
2022-08-21T14:37:45.720Z,2.70
2022-08-21T14:39:51.047Z,2.47
2022-08-21T14:41:56.167Z,2.60
2022-08-21T14:44:08.206Z,2.53
2022-08-21T14:46:16.783Z,2.50
2022-08-21T14:48:21.648Z,2.40
2022-08-21T14:52:36.622Z,2.65
2022-08-21T14:54:41.511Z,2.67
2022-08-21T14:58:53.265Z,2.30
2022-08-21T15:00:59.337Z,2.65
2022-08-21T15:03:04.316Z,2.70
2022-08-21T15:07:14.442Z,2.22
2022-08-21T15:11:42.482Z,3.00
2022-08-21T15:13:48.414Z,2.50
2022-08-21T15:15:57.042Z,2.80
2022-08-21T15:18:02.015Z,2.30
2022-08-21T15:20:08.841Z,2.03
2022-08-21T15:22:15.388Z,1.70
2022-08-21T15:24:29.250Z,2.00
2022-08-21T15:26:34.529Z,2.45
2022-08-21T15:28:40.459Z,1.85
2022-08-21T15:30:45.699Z,1.83
2022-08-21T15:32:50.578Z,2.55
2022-08-21T15:37:01.310Z,2.40
2022-08-21T15:39:06.694Z,2.30
2022-08-21T15:41:14.859Z,2.10
2022-08-21T15:43:30.073Z,2.47
2022-08-21T15:45:36.397Z,2.03
2022-08-21T15:47:42.358Z,2.05
2022-08-21T15:49:47.705Z,1.67
2022-08-21T15:51:53.680Z,2.42
2022-08-21T15:53:58.525Z,2.22
2022-08-21T15:56:04.620Z,2.33
2022-08-21T15:58:17.441Z,1.88
2022-08-21T16:00:25.772Z,2.20
2022-08-21T16:02:34.045Z,2.00
2022-08-21T16:04:38.981Z,1.70
2022-08-21T16:06:55.224Z,2.55
2022-08-21T16:09:00.663Z,1.95
2022-08-21T16:11:05.786Z,2.00
2022-08-21T16:13:19.001Z,2.53
2022-08-21T16:15:24.122Z,2.25
2022-08-21T16:17:32.080Z,2.00
2022-08-21T16:19:38.697Z,2.10
2022-08-21T16:21:43.700Z,2.42
2022-08-21T16:23:49.551Z,2.45
2022-08-21T16:25:54.423Z,2.10
2022-08-21T16:28:02.748Z,2.28
2022-08-21T16:30:11.469Z,2.38
2022-08-21T16:32:17.212Z,2.45
2022-08-21T16:34:23.156Z,2.50
2022-08-21T16:36:29.029Z,2.30
2022-08-21T16:38:34.865Z,2.08
2022-08-21T16:40:42.243Z,3.10
2022-08-21T16:44:52.525Z,2.73
2022-08-21T16:47:00.017Z,2.30
2022-08-21T16:49:05.694Z,2.72
2022-08-21T16:51:10.625Z,2.00
2022-08-21T16:55:20.720Z,2.80
2022-08-21T16:57:25.727Z,2.15
2022-08-21T17:01:37.294Z,3.35
2022-08-21T17:03:47.740Z,2.72
2022-08-21T17:05:52.638Z,2.22
2022-08-21T17:07:57.461Z,2.75
2022-08-21T17:12:08.086Z,2.42
2022-08-21T17:14:16.478Z,1.85
2022-08-21T17:16:21.759Z,1.90
2022-08-21T17:18:30.827Z,2.40
2022-08-21T17:20:38.329Z,2.55
2022-08-21T17:22:43.261Z,2.67
2022-08-21T17:26:53.265Z,2.65
2022-08-21T17:28:58.190Z,1.90
2022-08-21T17:33:24.736Z,2.63
2022-08-21T17:35:29.698Z,2.50
2022-08-21T17:39:41.981Z,2.70
2022-08-21T17:43:58.372Z,3.00
2022-08-21T17:46:03.258Z,2.65
2022-08-21T17:48:08.495Z,3.08
2022-08-21T17:50:16.821Z,2.80
2022-08-21T17:52:27.599Z,2.55
2022-08-21T17:54:35.014Z,2.85
2022-08-21T17:56:42.358Z,2.30
2022-08-21T17:58:51.387Z,2.47
2022-08-21T18:00:56.479Z,2.80
2022-08-21T18:03:04.644Z,2.17
2022-08-21T18:05:13.528Z,2.40
2022-08-21T18:07:31.819Z,3.05
2022-08-21T18:09:39.976Z,3.00
2022-08-21T18:11:46.062Z,2.72
2022-08-21T18:13:50.986Z,2.70
2022-08-21T18:18:01.384Z,2.03
2022-08-21T18:20:09.137Z,2.38
2022-08-21T18:22:14.125Z,2.33
2022-08-21T18:24:19.087Z,2.42
2022-08-21T18:28:34.250Z,2.50
2022-08-21T18:30:42.784Z,2.50
2022-08-21T18:32:49.469Z,3.08
2022-08-21T18:34:56.720Z,3.35
2022-08-21T18:37:01.783Z,3.60
2022-08-21T18:39:34.538Z,3.13
2022-08-21T18:41:35.643Z,3.10
2022-08-21T18:43:41.839Z,3.35
2022-08-21T18:45:47.196Z,3.42
2022-08-21T18:47:55.119Z,3.17
2022-08-21T18:50:00.412Z,3.13
2022-08-21T18:52:06.863Z,3.78
2022-08-21T18:54:13.031Z,3.78
2022-08-21T18:56:18.602Z,3.92
2022-08-21T18:58:27.004Z,4.20
2022-08-21T19:00:35.704Z,5.13
2022-08-21T19:02:40.721Z,4.03
2022-08-21T19:04:49.369Z,4.07
2022-08-21T19:06:54.694Z,3.95
2022-08-21T19:11:07.110Z,3.47
2022-08-21T19:13:14.836Z,3.72
2022-08-21T19:15:24.190Z,3.08
2022-08-21T19:17:30.737Z,3.30
2022-08-21T19:19:36.394Z,3.65
2022-08-21T19:21:44.550Z,3.88
2022-08-21T19:26:00.755Z,4.25
2022-08-21T19:30:36.858Z,4.07
2022-08-21T19:32:45.422Z,4.63
2022-08-21T19:34:51.204Z,4.45
2022-08-21T19:36:56.838Z,4.65
2022-08-21T19:39:07.256Z,5.57
2022-08-21T19:41:15.830Z,5.53
2022-08-21T19:45:49.193Z,4.32
2022-08-21T19:47:55.031Z,4.45
2022-08-21T19:50:03.261Z,4.00
2022-08-21T19:52:12.918Z,3.85
2022-08-21T19:54:22.621Z,3.78
2022-08-21T19:56:30.158Z,4.40
2022-08-21T19:58:38.530Z,3.45
2022-08-21T20:00:44.122Z,4.00
2022-08-21T20:02:51.661Z,4.22
2022-08-21T20:04:56.609Z,4.13
2022-08-21T20:07:01.974Z,3.60
2022-08-21T20:09:08.365Z,3.80
2022-08-21T20:11:14.776Z,4.30
2022-08-21T20:13:22.157Z,4.55
2022-08-21T20:15:27.180Z,3.38
2022-08-21T20:19:40.367Z,3.33
2022-08-21T20:21:45.257Z,3.72
2022-08-21T20:23:50.240Z,4.07
2022-08-21T20:25:56.596Z,3.88
2022-08-21T20:30:07.562Z,3.72
2022-08-21T20:32:14.563Z,3.25
2022-08-21T20:34:21.275Z,3.50
2022-08-21T20:36:29.310Z,3.70
2022-08-21T20:38:34.371Z,3.85
2022-08-21T20:42:45.521Z,3.30
2022-08-21T20:44:50.399Z,3.47
2022-08-21T20:46:55.855Z,3.88
2022-08-21T20:49:02.119Z,4.50
2022-08-21T20:51:12.790Z,4.45
2022-08-21T20:53:43.131Z,4.50
2022-08-21T20:55:51.815Z,4.75
2022-08-21T20:58:03.103Z,5.05
2022-08-21T21:00:14.435Z,5.07
2022-08-21T21:02:44.240Z,4.10
2022-08-21T21:04:53.300Z,5.28
2022-08-21T21:06:59.251Z,5.30
2022-08-21T21:09:16.539Z,3.92
2022-08-21T21:11:26.660Z,4.40
2022-08-21T21:13:36.052Z,3.92
2022-08-21T21:15:43.957Z,3.85
2022-08-21T21:17:53.997Z,4.20
2022-08-21T21:20:06.021Z,3.72
2022-08-21T21:22:16.012Z,3.55
2022-08-21T21:24:29.206Z,3.17
2022-08-21T21:26:39.731Z,3.70
2022-08-21T21:28:57.089Z,4.10
2022-08-21T21:31:03.734Z,3.60
2022-08-21T21:33:08.905Z,3.35
2022-08-21T21:35:17.437Z,4.05
2022-08-21T21:37:44.964Z,3.47
2022-08-21T21:40:01.666Z,3.90
2022-08-21T21:42:16.067Z,4.25
2022-08-21T21:44:42.685Z,4.18
2022-08-21T21:46:52.063Z,4.03
2022-08-21T21:49:11.629Z,4.03
2022-08-21T21:51:25.932Z,3.50
2022-08-21T21:53:45.824Z,3.97
2022-08-21T21:56:20.599Z,3.47
2022-08-21T21:59:08.413Z,4.20
2022-08-21T22:01:19.239Z,3.60
2022-08-21T22:03:29.177Z,3.70
2022-08-21T22:05:48.967Z,3.38
2022-08-21T22:08:00.668Z,4.43
2022-08-21T22:10:30.068Z,4.20
2022-08-21T22:12:50.122Z,5.03
2022-08-21T22:14:59.002Z,4.47
2022-08-21T22:19:19.194Z,4.05
2022-08-21T22:21:30.624Z,4.20
2022-08-21T22:23:42.934Z,4.47
2022-08-21T22:25:52.206Z,4.78
2022-08-21T22:28:07.034Z,4.20
2022-08-21T22:30:19.050Z,4.25
2022-08-21T22:32:38.236Z,4.03
2022-08-21T22:34:45.516Z,4.53
2022-08-21T22:37:02.988Z,3.83
2022-08-21T22:39:10.784Z,4.38
2022-08-21T22:41:19.540Z,3.85
2022-08-21T22:43:27.880Z,3.72
2022-08-21T22:45:35.392Z,3.67
2022-08-21T22:47:43.903Z,4.15
2022-08-21T22:49:54.227Z,3.97
2022-08-21T22:52:10.611Z,4.10
2022-08-21T22:54:27.035Z,3.80
2022-08-21T22:56:37.118Z,4.38
2022-08-21T22:58:58.111Z,3.97
2022-08-21T23:01:07.161Z,4.18
2022-08-21T23:03:19.609Z,4.32
2022-08-21T23:05:37.188Z,4.47
2022-08-21T23:07:49.892Z,3.88
2022-08-21T23:09:56.131Z,3.97
2022-08-21T23:12:21.015Z,4.40
2022-08-21T23:14:30.035Z,3.90
2022-08-21T23:16:47.253Z,4.22
2022-08-21T23:19:01.489Z,3.97
2022-08-21T23:21:14.064Z,4.20
2022-08-21T23:23:25.597Z,4.25
2022-08-21T23:25:50.371Z,3.83
2022-08-21T23:28:06.007Z,4.10
2022-08-21T23:32:39.088Z,4.40
2022-08-21T23:35:06.199Z,4.50
2022-08-21T23:37:43.980Z,4.45
2022-08-21T23:40:11.499Z,4.32
2022-08-21T23:42:35.373Z,4.07
2022-08-21T23:44:49.061Z,4.40
2022-08-21T23:47:10.071Z,4.10
2022-08-21T23:49:27.198Z,4.60
2022-08-21T23:51:41.562Z,4.47
2022-08-21T23:54:08.469Z,4.40
2022-08-21T23:56:24.586Z,4.30
2022-08-21T23:58:51.000Z,4.68
